KFAT/FAT METAR and TAF weather

Enter ICAO airport designator
Station Type Date Time Source
KFAT METAR 2021/01/27 13:53 UTC NOAA

KFAT 271353Z 14014KT 10SM BKN050 OVC055 10/02 A2990 RMK AO2 SLP126 T01000017 $


Station Type Date Time Source
KFAT Decoded METAR 2021/01/27 13:53 UTC NOAA

FRESNO AIR TERMINAL, CA, United States (KFAT) 36-47N 119-43W 104M
Jan 27, 2021 - 08:53 AM EST / 2021.01.27 1353 UTC
Wind: from the SE (140 degrees) at 16 MPH (14 KT):0
Visibility: 10 mile(s):0
Sky conditions: overcast
Temperature: 50.0 F (10.0 C)
Dew Point: 35.1 F (1.7 C)
Relative Humidity: 56%
Pressure (altimeter): 29.9 in. Hg (1012 hPa)
ob: KFAT 271353Z 14014KT 10SM BKN050 OVC055 10/02 A2990 RMK AO2 SLP126 T01000017
cycle: 14

Station Type Date Time Source
KFAT TAF 2021/01/27 12:36 UTC NOAA

TAF KFAT 271134Z 2712/2812 15016G25KT P6SM -RA SCT020 OVC040
TEMPO 2716/2720 4SM RA OVC020
FM272000 13014G21KT 4SM RA OVC020

Example: see airport list